NKS570 KLAX-KIAH
Flight info
| Callsign | NKS570 |
|---|---|
| Flight time | N/A |
| Altitude | 35000 |
| Route | DOTSS2 CNERY DCT BLH DCT SPTFR Q4 FUSCO DCT DIESL TTORO3 |
| Aircraft | A320/M-SDE3FGHIRWY/LB1 |
Departure
| Time | 2026-05-08 00:26 |
|---|---|
| Airport | Los Angeles International Airport (KLAX) |
Arrival
| Time | N/A |
|---|---|
| Airport | George Bush Intercontinental Airport (KIAH) |
| Time | Latitude | Longitude | Altitude | Speed | Heading |
|---|---|---|---|---|---|
| 2026-05-08 00:06 | 33.94133 | -118.40392 | 93 ft | 0 kts | 268° |
| 2026-05-08 00:11 | 33.94133 | -118.40384 | 93 ft | 4 kts | 265° |
| 2026-05-08 00:11 | 33.94138 | -118.40353 | 93 ft | 4 kts | 239° |
| 2026-05-08 00:12 | 33.94155 | -118.40333 | 92 ft | 4 kts | 187° |
| 2026-05-08 00:12 | 33.94167 | -118.40333 | 92 ft | 1 kts | 174° |
| 2026-05-08 00:14 | 33.94161 | -118.40332 | 93 ft | 2 kts | 173° |
| 2026-05-08 00:15 | 33.94143 | -118.40330 | 93 ft | 3 kts | 173° |
| 2026-05-08 00:15 | 33.94120 | -118.40327 | 94 ft | 4 kts | 173° |
| 2026-05-08 00:15 | 33.94103 | -118.40324 | 95 ft | 3 kts | 173° |
| 2026-05-08 00:15 | 33.94079 | -118.40321 | 93 ft | 2 kts | 173° |
| 2026-05-08 00:16 | 33.94078 | -118.40320 | 93 ft | 0 kts | 173° |
| 2026-05-08 00:16 | 33.94071 | -118.40319 | 93 ft | 2 kts | 173° |
| 2026-05-08 00:16 | 33.94054 | -118.40317 | 93 ft | 3 kts | 172° |
| 2026-05-08 00:16 | 33.94023 | -118.40311 | 95 ft | 6 kts | 170° |
| 2026-05-08 00:17 | 33.93944 | -118.40296 | 95 ft | 14 kts | 173° |
| 2026-05-08 00:17 | 33.93859 | -118.40278 | 97 ft | 8 kts | 142° |
| 2026-05-08 00:17 | 33.93859 | -118.40189 | 96 ft | 16 kts | 83° |
| 2026-05-08 00:17 | 33.93877 | -118.40023 | 96 ft | 22 kts | 83° |
| 2026-05-08 00:18 | 33.93896 | -118.39831 | 97 ft | 24 kts | 83° |
| 2026-05-08 00:18 | 33.93917 | -118.39624 | 95 ft | 26 kts | 83° |
| 2026-05-08 00:18 | 33.93939 | -118.39405 | 95 ft | 26 kts | 83° |
| 2026-05-08 00:18 | 33.93961 | -118.39192 | 93 ft | 26 kts | 83° |
| 2026-05-08 00:19 | 33.93984 | -118.38970 | 96 ft | 27 kts | 83° |
| 2026-05-08 00:19 | 33.94007 | -118.38745 | 94 ft | 26 kts | 83° |
| 2026-05-08 00:19 | 33.94027 | -118.38553 | 96 ft | 19 kts | 83° |
| 2026-05-08 00:19 | 33.94043 | -118.38393 | 97 ft | 19 kts | 83° |
| 2026-05-08 00:20 | 33.94055 | -118.38274 | 97 ft | 12 kts | 83° |
| 2026-05-08 00:20 | 33.94062 | -118.38209 | 94 ft | 5 kts | 83° |
| 2026-05-08 00:20 | 33.94068 | -118.38153 | 94 ft | 8 kts | 83° |
| 2026-05-08 00:20 | 33.94073 | -118.38098 | 93 ft | 2 kts | 83° |
| 2026-05-08 00:21 | 33.94073 | -118.38097 | 93 ft | 0 kts | 83° |
| 2026-05-08 00:22 | 33.94074 | -118.38092 | 93 ft | 2 kts | 83° |
| 2026-05-08 00:22 | 33.94076 | -118.38067 | 93 ft | 4 kts | 83° |
| 2026-05-08 00:23 | 33.94078 | -118.38051 | 93 ft | 0 kts | 83° |
| 2026-05-08 00:24 | 33.94075 | -118.38024 | 93 ft | 9 kts | 110° |
| 2026-05-08 00:24 | 33.94007 | -118.37994 | 93 ft | 11 kts | 182° |
| 2026-05-08 00:24 | 33.93981 | -118.38043 | 95 ft | 0 kts | 263° |
| 2026-05-08 00:25 | 33.93966 | -118.38192 | 95 ft | 48 kts | 263° |
| 2026-05-08 00:25 | 33.93901 | -118.38827 | 98 ft | 105 kts | 263° |
| 2026-05-08 00:25 | 33.93792 | -118.39887 | 99 ft | 148 kts | 263° |
| 2026-05-08 00:26 | 33.93652 | -118.41241 | 354 ft | 166 kts | 260° |
| 2026-05-08 00:26 | 33.93484 | -118.42609 | 1032 ft | 165 kts | 260° |
| 2026-05-08 00:26 | 33.93331 | -118.44013 | 1582 ft | 176 kts | 264° |
| 2026-05-08 00:26 | 33.93162 | -118.45554 | 1859 ft | 197 kts | 258° |
| 2026-05-08 00:27 | 33.92446 | -118.47081 | 2086 ft | 226 kts | 231° |
| 2026-05-08 00:27 | 33.91386 | -118.48585 | 2497 ft | 245 kts | 232° |
| 2026-05-08 00:27 | 33.90272 | -118.50217 | 3103 ft | 256 kts | 232° |
| 2026-05-08 00:27 | 33.89115 | -118.51885 | 3826 ft | 261 kts | 232° |
| 2026-05-08 00:28 | 33.87937 | -118.53561 | 4599 ft | 265 kts | 232° |
| 2026-05-08 00:28 | 33.86645 | -118.55170 | 4902 ft | 270 kts | 217° |
| 2026-05-08 00:28 | 33.84887 | -118.55970 | 4991 ft | 277 kts | 187° |
| 2026-05-08 00:28 | 33.82983 | -118.55705 | 5008 ft | 282 kts | 170° |
| 2026-05-08 00:29 | 33.81065 | -118.55178 | 5003 ft | 282 kts | 170° |
| 2026-05-08 00:29 | 33.79143 | -118.54647 | 5177 ft | 285 kts | 170° |
| 2026-05-08 00:29 | 33.77209 | -118.54115 | 5988 ft | 286 kts | 169° |
| 2026-05-08 00:29 | 33.75274 | -118.53584 | 6760 ft | 288 kts | 169° |
| 2026-05-08 00:30 | 33.73316 | -118.53026 | 7452 ft | 292 kts | 164° |
| 2026-05-08 00:30 | 33.71448 | -118.52012 | 8149 ft | 297 kts | 147° |
| 2026-05-08 00:30 | 33.69852 | -118.50416 | 8891 ft | 300 kts | 130° |
| 2026-05-08 00:30 | 33.68672 | -118.48368 | 9635 ft | 299 kts | 114° |
| 2026-05-08 00:31 | 33.67789 | -118.46094 | 10217 ft | 309 kts | 119° |
| 2026-05-08 00:31 | 33.66302 | -118.44098 | 10355 ft | 335 kts | 142° |
| 2026-05-08 00:31 | 33.64146 | -118.42854 | 10479 ft | 358 kts | 165° |
| 2026-05-08 00:31 | 33.61637 | -118.42625 | 10663 ft | 375 kts | 186° |
| 2026-05-08 00:32 | 33.59122 | -118.43523 | 11122 ft | 382 kts | 208° |
| 2026-05-08 00:32 | 33.57002 | -118.45425 | 11672 ft | 385 kts | 228° |
| 2026-05-08 00:32 | 33.55530 | -118.48097 | 12230 ft | 386 kts | 248° |
| 2026-05-08 00:32 | 33.54892 | -118.51212 | 12764 ft | 388 kts | 268° |
| 2026-05-08 00:33 | 33.55049 | -118.54442 | 12991 ft | 388 kts | 278° |
| 2026-05-08 00:33 | 33.55060 | -118.57676 | 13274 ft | 391 kts | 261° |
| 2026-05-08 00:33 | 33.54178 | -118.60771 | 13653 ft | 396 kts | 240° |
| 2026-05-08 00:33 | 33.52464 | -118.63366 | 14131 ft | 400 kts | 221° |
| 2026-05-08 00:34 | 33.50152 | -118.65224 | 14605 ft | 402 kts | 204° |
| 2026-05-08 00:34 | 33.47469 | -118.66172 | 15082 ft | 403 kts | 186° |
| 2026-05-08 00:34 | 33.44680 | -118.66101 | 15565 ft | 402 kts | 167° |
| 2026-05-08 00:34 | 33.42072 | -118.65044 | 16031 ft | 401 kts | 150° |
| 2026-05-08 00:35 | 33.39837 | -118.63091 | 16500 ft | 400 kts | 133° |
| 2026-05-08 00:35 | 33.38195 | -118.60418 | 16975 ft | 400 kts | 115° |
| 2026-05-08 00:35 | 33.37296 | -118.57288 | 17448 ft | 400 kts | 98° |
| 2026-05-08 00:35 | 33.37219 | -118.53974 | 17940 ft | 400 kts | 81° |
| 2026-05-08 00:36 | 33.37965 | -118.50777 | 18423 ft | 401 kts | 66° |
| 2026-05-08 00:36 | 33.39105 | -118.47712 | 18852 ft | 404 kts | 65° |
| 2026-05-08 00:36 | 33.40259 | -118.44640 | 19281 ft | 406 kts | 65° |
| 2026-05-08 00:36 | 33.41426 | -118.41543 | 19722 ft | 409 kts | 65° |
| 2026-05-08 00:37 | 33.42599 | -118.38427 | 20157 ft | 412 kts | 65° |
| 2026-05-08 00:37 | 33.43774 | -118.35293 | 20587 ft | 414 kts | 65° |
| 2026-05-08 00:37 | 33.44956 | -118.32128 | 21000 ft | 417 kts | 65° |
| 2026-05-08 00:38 | 33.47329 | -118.25754 | 21770 ft | 422 kts | 65° |
| 2026-05-08 00:38 | 33.48527 | -118.22532 | 22145 ft | 424 kts | 65° |
| 2026-05-08 00:38 | 33.49733 | -118.19290 | 22509 ft | 427 kts | 65° |
| 2026-05-08 00:38 | 33.50947 | -118.16023 | 22868 ft | 429 kts | 65° |
| 2026-05-08 00:39 | 33.52163 | -118.12744 | 23226 ft | 432 kts | 65° |
| 2026-05-08 00:39 | 33.53383 | -118.09442 | 23555 ft | 434 kts | 65° |
| 2026-05-08 00:39 | 33.54608 | -118.06128 | 23858 ft | 437 kts | 65° |
| 2026-05-08 00:39 | 33.55827 | -118.02827 | 24177 ft | 438 kts | 65° |
| 2026-05-08 00:40 | 33.57057 | -117.99498 | 24497 ft | 439 kts | 65° |
| 2026-05-08 00:40 | 33.58296 | -117.96140 | 24810 ft | 441 kts | 65° |
| 2026-05-08 00:40 | 33.59539 | -117.92777 | 25117 ft | 442 kts | 65° |
| 2026-05-08 00:40 | 33.60787 | -117.89396 | 25410 ft | 444 kts | 65° |
| 2026-05-08 00:41 | 33.62035 | -117.85980 | 25732 ft | 446 kts | 67° |
| 2026-05-08 00:41 | 33.62937 | -117.82426 | 26159 ft | 447 kts | 77° |
| 2026-05-08 00:41 | 33.63301 | -117.78725 | 26599 ft | 448 kts | 87° |
| 2026-05-08 00:41 | 33.63114 | -117.74992 | 27037 ft | 449 kts | 97° |
| 2026-05-08 00:42 | 33.62396 | -117.71333 | 27464 ft | 451 kts | 104° |
| 2026-05-08 00:42 | 33.61510 | -117.67740 | 27907 ft | 449 kts | 104° |
| 2026-05-08 00:42 | 33.60626 | -117.64144 | 28354 ft | 448 kts | 104° |
| 2026-05-08 00:42 | 33.59744 | -117.60561 | 28797 ft | 447 kts | 104° |
| 2026-05-08 00:43 | 33.58875 | -117.57035 | 29223 ft | 446 kts | 104° |
| 2026-05-08 00:43 | 33.57993 | -117.53461 | 29673 ft | 445 kts | 104° |
| 2026-05-08 00:43 | 33.57112 | -117.49906 | 30120 ft | 444 kts | 104° |
| 2026-05-08 00:43 | 33.56228 | -117.46356 | 30515 ft | 443 kts | 104° |
| 2026-05-08 00:44 | 33.55344 | -117.42811 | 30887 ft | 442 kts | 104° |
| 2026-05-08 00:44 | 33.54461 | -117.39275 | 31276 ft | 441 kts | 104° |
| 2026-05-08 00:44 | 33.53585 | -117.35754 | 31661 ft | 440 kts | 104° |
| 2026-05-08 00:44 | 33.52710 | -117.32236 | 32041 ft | 439 kts | 104° |
| 2026-05-08 00:45 | 33.51834 | -117.28733 | 32432 ft | 438 kts | 104° |
| 2026-05-08 00:45 | 33.50984 | -117.25228 | 32814 ft | 436 kts | 100° |
| 2026-05-08 00:45 | 33.50496 | -117.21657 | 33190 ft | 432 kts | 91° |
| 2026-05-08 00:45 | 33.50412 | -117.18124 | 33564 ft | 430 kts | 88° |
| 2026-05-08 00:46 | 33.50378 | -117.14542 | 33969 ft | 429 kts | 88° |
| 2026-05-08 00:46 | 33.50337 | -117.10973 | 34283 ft | 428 kts | 88° |
| 2026-05-08 00:46 | 33.50288 | -117.07399 | 34572 ft | 428 kts | 88° |
| 2026-05-08 00:46 | 33.50234 | -117.03839 | 34840 ft | 427 kts | 88° |
| 2026-05-08 00:47 | 33.50179 | -117.00269 | 34979 ft | 429 kts | 88° |
| 2026-05-08 00:47 | 33.50071 | -116.93044 | 35009 ft | 441 kts | 88° |
| 2026-05-08 00:48 | 33.49955 | -116.85637 | 35005 ft | 446 kts | 88° |
| 2026-05-08 00:48 | 33.49840 | -116.78214 | 34983 ft | 445 kts | 88° |
| 2026-05-08 00:49 | 33.49742 | -116.72053 | 34962 ft | 445 kts | 88° |
| 2026-05-08 00:49 | 33.49623 | -116.64638 | 34959 ft | 445 kts | 88° |
| 2026-05-08 00:50 | 33.49470 | -116.56035 | 34948 ft | 446 kts | 88° |
| 2026-05-08 00:50 | 33.49336 | -116.48613 | 34910 ft | 446 kts | 88° |
| 2026-05-08 00:51 | 33.49214 | -116.42424 | 34908 ft | 446 kts | 88° |
| 2026-05-08 00:51 | 33.49091 | -116.34989 | 34891 ft | 446 kts | 88° |
| 2026-05-08 00:52 | 33.48993 | -116.27552 | 34897 ft | 446 kts | 88° |
| 2026-05-08 00:52 | 33.48889 | -116.20156 | 34845 ft | 446 kts | 88° |
| 2026-05-08 00:53 | 33.48768 | -116.12725 | 34838 ft | 446 kts | 88° |
| 2026-05-08 00:53 | 33.48750 | -116.05283 | 34837 ft | 444 kts | 82° |
| 2026-05-08 00:54 | 33.50133 | -115.98188 | 34833 ft | 438 kts | 68° |
| 2026-05-08 00:54 | 33.52165 | -115.91291 | 34856 ft | 437 kts | 68° |
| 2026-05-08 00:55 | 33.54180 | -115.84415 | 34862 ft | 436 kts | 68° |
| 2026-05-08 00:55 | 33.56159 | -115.77608 | 34862 ft | 435 kts | 68° |
| 2026-05-08 00:56 | 33.58149 | -115.70759 | 34864 ft | 434 kts | 68° |
| 2026-05-08 00:56 | 33.60135 | -115.63926 | 34871 ft | 433 kts | 68° |
| 2026-05-08 00:57 | 33.61692 | -115.56937 | 34863 ft | 439 kts | 84° |
| 2026-05-08 00:57 | 33.61580 | -115.49572 | 34856 ft | 441 kts | 88° |
| 2026-05-08 00:58 | 33.61398 | -115.42272 | 34844 ft | 442 kts | 88° |
| 2026-05-08 00:58 | 33.61214 | -115.34858 | 34846 ft | 442 kts | 88° |
| 2026-05-08 00:59 | 33.61027 | -115.27526 | 34879 ft | 442 kts | 88° |